Time,TemperatureF,DewpointF,PressureIn,WindDirection,WindDirectionDegrees,WindSpeedMPH,WindSpeedGustMPH,Humidity,HourlyPrecipIn,Conditions,Clouds,dailyrainin,SoftwareType,DateUTC
2014-03-01 00:01:00,32.5,21.7,29.98,South,171,3.0,3.0,64,0.00,,,0.00,Wunderground v.1.15,2014-03-01 06:01:00,
2014-03-01 00:11:00,32.5,21.7,29.98,South,184,3.0,5.0,64,0.00,,,0.00,Wunderground v.1.15,2014-03-01 06:11:00,
2014-03-01 00:21:00,32.8,22.0,29.97,SSE,168,3.0,6.0,64,0.00,,,0.00,Wunderground v.1.15,2014-03-01 06:21:00,
2014-03-01 00:31:00,32.9,22.0,29.97,SSE,158,4.0,4.0,64,0.00,,,0.00,Wunderground v.1.15,2014-03-01 06:31:00,
2014-03-01 00:41:00,33.2,22.0,29.97,SE,140,4.0,4.0,63,0.00,,,0.00,Wunderground v.1.15,2014-03-01 06:41:00,
2014-03-01 00:51:00,33.4,22.5,29.98,South,184,4.0,4.0,64,0.00,,,0.00,Wunderground v.1.15,2014-03-01 06:51:00,
2014-03-01 01:01:00,33.4,22.5,29.98,South,185,3.0,3.0,64,0.00,,,0.00,Wunderground v.1.15,2014-03-01 07:01:00,
2014-03-01 01:11:00,33.4,22.5,29.98,South,171,3.0,3.0,64,0.00,,,0.00,Wunderground v.1.15,2014-03-01 07:11:00,
2014-03-01 01:21:00,33.2,22.7,29.98,South,184,2.0,2.0,65,0.00,,,0.00,Wunderground v.1.15,2014-03-01 07:21:00,
2014-03-01 01:31:00,32.7,23.6,30.01,WNW,294,6.0,6.0,69,0.00,,,0.00,Wunderground v.1.15,2014-03-01 07:31:00,
2014-03-01 01:41:00,32.5,23.5,30.01,WNW,294,2.0,2.0,69,0.00,,,0.00,Wunderground v.1.15,2014-03-01 07:41:00,
2014-03-01 01:51:00,32.7,23.6,30.01,WNW,294,1.0,1.0,69,0.00,,,0.00,Wunderground v.1.15,2014-03-01 07:51:00,
2014-03-01 02:01:00,32.7,23.6,30.00,WNW,294,0.0,0.0,69,0.00,,,0.00,Wunderground v.1.15,2014-03-01 08:01:00,
2014-03-01 02:11:00,32.5,23.5,30.00,WNW,294,0.0,0.0,69,0.00,,,0.00,Wunderground v.1.15,2014-03-01 08:11:00,
2014-03-01 02:21:00,32.4,23.4,30.00,WNW,294,0.0,0.0,69,0.00,,,0.00,Wunderground v.1.15,2014-03-01 08:21:00,
2014-03-01 02:31:00,32.2,23.5,30.01,WNW,294,0.0,0.0,70,0.00,,,0.00,Wunderground v.1.15,2014-03-01 08:31:00,
2014-03-01 02:41:00,32.4,23.4,30.01,NW,313,1.0,1.0,69,0.00,,,0.00,Wunderground v.1.15,2014-03-01 08:41:00,
2014-03-01 02:51:00,31.9,23.6,30.03,North,0,5.0,5.0,71,0.00,,,0.00,Wunderground v.1.15,2014-03-01 08:51:00,
2014-03-01 03:01:00,30.6,22.6,30.02,North,4,1.0,1.0,72,0.00,,,0.00,Wunderground v.1.15,2014-03-01 09:01:00,
2014-03-01 03:11:00,30.1,22.8,30.02,North,4,0.0,0.0,74,0.00,,,0.00,Wunderground v.1.15,2014-03-01 09:11:00,
2014-03-01 03:21:00,30.1,22.8,30.01,North,4,0.0,0.0,74,0.00,,,0.00,Wunderground v.1.15,2014-03-01 09:21:00,
2014-03-01 03:31:00,30.0,23.0,30.01,NE,49,0.0,0.0,75,0.00,,,0.00,Wunderground v.1.15,2014-03-01 09:31:00,
2014-03-01 03:41:00,29.8,23.2,30.01,NE,49,0.0,2.0,76,0.00,,,0.00,Wunderground v.1.15,2014-03-01 09:41:00,
2014-03-01 03:51:00,29.7,23.4,30.02,NNW,336,2.0,2.0,77,0.00,,,0.00,Wunderground v.1.15,2014-03-01 09:51:00,
2014-03-01 04:01:00,29.4,23.4,30.04,NW,306,3.0,5.0,78,0.00,,,0.00,Wunderground v.1.15,2014-03-01 10:01:00,
2014-03-01 04:11:00,28.8,23.4,30.04,North,359,5.0,5.0,80,0.00,,,0.00,Wunderground v.1.15,2014-03-01 10:11:00,
2014-03-01 04:21:00,28.1,23.6,30.05,NW,318,4.0,6.0,83,0.00,,,0.00,Wunderground v.1.15,2014-03-01 10:21:00,
2014-03-01 04:31:00,27.6,24.0,30.07,NW,322,5.0,5.0,86,0.00,,,0.00,Wunderground v.1.15,2014-03-01 10:31:00,
2014-03-01 04:41:00,27.2,23.8,30.07,NNW,342,7.0,7.0,87,0.00,,,0.00,Wunderground v.1.15,2014-03-01 10:41:00,
2014-03-01 04:51:00,26.9,23.5,30.09,NW,311,5.0,13.0,87,0.00,,,0.00,Wunderground v.1.15,2014-03-01 10:51:00,
2014-03-01 05:01:00,26.6,23.3,30.10,NNW,329,7.0,7.0,87,0.00,,,0.00,Wunderground v.1.15,2014-03-01 11:01:00,
2014-03-01 05:11:00,26.4,23.3,30.10,NNW,340,5.0,8.0,88,0.00,,,0.00,Wunderground v.1.15,2014-03-01 11:11:00,
2014-03-01 05:21:00,26.3,23.2,30.10,North,0,4.0,6.0,88,0.00,,,0.00,Wunderground v.1.15,2014-03-01 11:21:00,
2014-03-01 05:31:00,26.1,23.0,30.10,North,357,6.0,6.0,88,0.00,,,0.00,Wunderground v.1.15,2014-03-01 11:31:00,
2014-03-01 05:41:00,26.0,23.2,30.10,North,8,4.0,5.0,89,0.00,,,0.00,Wunderground v.1.15,2014-03-01 11:41:00,
2014-03-01 05:51:00,25.8,23.0,30.11,NW,308,2.0,4.0,89,0.00,,,0.00,Wunderground v.1.15,2014-03-01 11:51:00,
2014-03-01 06:01:00,25.4,22.6,30.12,WNW,295,4.0,4.0,89,0.00,,,0.00,Wunderground v.1.15,2014-03-01 12:01:00,
2014-03-01 06:11:00,25.0,21.9,30.12,NNW,347,3.0,6.0,88,0.00,,,0.00,Wunderground v.1.15,2014-03-01 12:11:00,
2014-03-01 06:21:00,24.2,21.2,30.14,NW,304,7.0,7.0,88,0.00,,,0.00,Wunderground v.1.15,2014-03-01 12:21:00,
2014-03-01 06:31:00,23.8,20.8,30.14,NNW,335,5.0,5.0,88,0.00,,,0.00,Wunderground v.1.15,2014-03-01 12:31:00,
2014-03-01 06:41:00,23.5,20.7,30.14,North,3,6.0,6.0,89,0.00,,,0.00,Wunderground v.1.15,2014-03-01 12:41:00,
2014-03-01 06:51:00,23.3,20.5,30.15,North,8,5.0,8.0,89,0.00,,,0.00,Wunderground v.1.15,2014-03-01 12:51:00,
2014-03-01 07:01:00,23.2,20.4,30.15,North,0,3.0,3.0,89,0.00,,,0.00,Wunderground v.1.15,2014-03-01 13:01:00,
2014-03-01 07:11:00,23.0,20.0,30.15,North,359,4.0,7.0,88,0.00,,,0.00,Wunderground v.1.15,2014-03-01 13:11:00,
2014-03-01 07:21:00,22.9,19.6,30.17,North,349,3.0,4.0,87,0.00,,,0.00,Wunderground v.1.15,2014-03-01 13:21:00,
2014-03-01 07:31:00,22.9,19.3,30.18,North,0,4.0,4.0,86,0.00,,,0.00,Wunderground v.1.15,2014-03-01 13:31:00,
2014-03-01 07:41:00,22.9,19.3,30.18,NNW,335,5.0,9.0,86,0.00,,,0.00,Wunderground v.1.15,2014-03-01 13:41:00,
2014-03-01 07:51:00,22.9,19.1,30.20,NNW,339,6.0,6.0,85,0.00,,,0.00,Wunderground v.1.15,2014-03-01 13:51:00,
2014-03-01 08:01:00,22.7,18.6,30.20,NNW,333,5.0,11.0,84,0.00,,,0.00,Wunderground v.1.15,2014-03-01 14:01:00,
2014-03-01 08:11:00,22.5,18.1,30.20,North,352,5.0,5.0,83,0.00,,,0.00,Wunderground v.1.15,2014-03-01 14:11:00,
2014-03-01 08:21:00,22.5,17.5,30.22,NNW,336,4.0,10.0,81,0.00,,,0.00,Wunderground v.1.15,2014-03-01 14:21:00,
2014-03-01 08:31:00,22.9,17.7,30.21,North,354,3.0,4.0,80,0.00,,,0.00,Wunderground v.1.15,2014-03-01 14:31:00,
2014-03-01 08:41:00,23.0,16.9,30.21,NE,35,4.0,4.0,77,0.00,,,0.00,Wunderground v.1.15,2014-03-01 14:41:00,
2014-03-01 08:51:00,23.0,16.6,30.22,NNE,28,5.0,5.0,76,0.00,,,0.00,Wunderground v.1.15,2014-03-01 14:51:00,
2014-03-01 09:01:00,22.7,16.0,30.22,NNE,13,5.0,10.0,75,0.00,,,0.00,Wunderground v.1.15,2014-03-01 15:01:00,
2014-03-01 09:11:00,22.7,16.3,30.22,North,0,5.0,5.0,76,0.00,,,0.00,Wunderground v.1.15,2014-03-01 15:11:00,
2014-03-01 09:21:00,22.9,16.5,30.23,NNW,340,4.0,5.0,76,0.00,,,0.00,Wunderground v.1.15,2014-03-01 15:21:00,
2014-03-01 09:31:00,22.7,16.0,30.22,North,6,6.0,6.0,75,0.00,,,0.00,Wunderground v.1.15,2014-03-01 15:31:00,
2014-03-01 09:41:00,23.0,16.3,30.22,North,359,3.0,4.0,75,0.00,,,0.00,Wunderground v.1.15,2014-03-01 15:41:00,
2014-03-01 09:51:00,22.9,16.5,30.22,NNE,14,4.0,4.0,76,0.00,,,0.00,Wunderground v.1.15,2014-03-01 15:51:00,
2014-03-01 10:01:00,22.9,16.2,30.24,NE,41,5.0,5.0,75,0.00,,,0.00,Wunderground v.1.15,2014-03-01 16:01:00,
2014-03-01 10:11:00,22.9,16.2,30.24,NNW,335,6.0,11.0,75,0.00,,,0.00,Wunderground v.1.15,2014-03-01 16:11:00,
2014-03-01 10:21:00,23.3,16.2,30.24,North,6,6.0,7.0,74,0.00,,,0.00,Wunderground v.1.15,2014-03-01 16:21:00,
2014-03-01 10:31:00,23.6,16.2,30.23,North,0,6.0,8.0,73,0.00,,,0.00,Wunderground v.1.15,2014-03-01 16:31:00,
2014-03-01 10:41:00,23.6,16.2,30.23,NE,38,6.0,14.0,73,0.00,,,0.00,Wunderground v.1.15,2014-03-01 16:41:00,
2014-03-01 10:51:00,23.8,16.4,30.22,North,0,5.0,6.0,73,0.00,,,0.00,Wunderground v.1.15,2014-03-01 16:51:00,
2014-03-01 11:01:00,23.3,16.2,30.23,North,1,6.0,6.0,74,0.00,,,0.00,Wunderground v.1.15,2014-03-01 17:01:00,
2014-03-01 11:11:00,23.0,15.9,30.23,ENE,68,6.0,6.0,74,0.00,,,0.00,Wunderground v.1.15,2014-03-01 17:11:00,
2014-03-01 11:21:00,23.0,15.9,30.24,North,354,5.0,5.0,74,0.00,,,0.00,Wunderground v.1.15,2014-03-01 17:21:00,
2014-03-01 11:31:00,23.3,15.3,30.26,North,0,5.0,5.0,71,0.00,,,0.00,Wunderground v.1.15,2014-03-01 17:31:00,
2014-03-01 11:41:00,23.5,15.5,30.26,ENE,58,5.0,5.0,71,0.00,,,0.00,Wunderground v.1.15,2014-03-01 17:41:00,
2014-03-01 11:51:00,23.0,15.0,30.27,North,359,6.0,6.0,71,0.00,,,0.00,Wunderground v.1.15,2014-03-01 17:51:00,
2014-03-01 12:01:00,23.2,15.2,30.27,NE,48,4.0,4.0,71,0.00,,,0.00,Wunderground v.1.15,2014-03-01 18:01:00,
2014-03-01 12:11:00,23.3,15.3,30.27,NE,44,1.0,1.0,71,0.00,,,0.00,Wunderground v.1.15,2014-03-01 18:11:00,
2014-03-01 12:21:00,22.7,14.7,30.28,NNE,18,3.0,5.0,71,0.00,,,0.00,Wunderground v.1.15,2014-03-01 18:21:00,
2014-03-01 12:31:00,22.5,14.5,30.26,North,8,3.0,4.0,71,0.00,,,0.00,Wunderground v.1.15,2014-03-01 18:31:00,
2014-03-01 12:41:00,22.9,14.6,30.26,North,353,3.0,3.0,70,0.00,,,0.00,Wunderground v.1.15,2014-03-01 18:41:00,
2014-03-01 12:51:00,22.9,14.2,30.25,NNW,346,3.0,5.0,69,0.00,,,0.00,Wunderground v.1.15,2014-03-01 18:51:00,
2014-03-01 13:01:00,23.3,14.3,30.25,North,8,2.0,5.0,68,0.00,,,0.00,Wunderground v.1.15,2014-03-01 19:01:00,
2014-03-01 13:11:00,23.0,13.0,30.25,NNE,13,4.0,4.0,65,0.00,,,0.00,Wunderground v.1.15,2014-03-01 19:11:00,
2014-03-01 13:21:00,23.3,13.3,30.26,NW,323,2.0,4.0,65,0.00,,,0.00,Wunderground v.1.15,2014-03-01 19:21:00,
2014-03-01 13:31:00,23.0,11.9,30.26,North,349,3.0,5.0,62,0.00,,,0.00,Wunderground v.1.15,2014-03-01 19:31:00,
2014-03-01 13:41:00,22.9,12.2,30.26,NW,326,4.0,6.0,63,0.00,,,0.00,Wunderground v.1.15,2014-03-01 19:41:00,
2014-03-01 13:51:00,22.9,12.2,30.25,North,0,3.0,3.0,63,0.00,,,0.00,Wunderground v.1.15,2014-03-01 19:51:00,
2014-03-01 14:01:00,22.2,11.5,30.27,NNW,343,5.0,5.0,63,0.00,,,0.00,Wunderground v.1.15,2014-03-01 20:01:00,
2014-03-01 14:11:00,22.5,12.1,30.27,NW,326,2.0,2.0,64,0.00,,,0.00,Wunderground v.1.15,2014-03-01 20:11:00,
2014-03-01 14:21:00,22.2,12.2,30.27,North,6,4.0,10.0,65,0.00,,,0.00,Wunderground v.1.15,2014-03-01 20:21:00,
2014-03-01 14:31:00,22.1,12.1,30.26,North,8,3.0,3.0,65,0.00,,,0.00,Wunderground v.1.15,2014-03-01 20:31:00,
2014-03-01 14:41:00,21.6,11.6,30.26,North,0,4.0,4.0,65,0.00,,,0.00,Wunderground v.1.15,2014-03-01 20:41:00,
2014-03-01 14:51:00,21.6,11.3,30.25,NE,34,4.0,5.0,64,0.00,,,0.00,Wunderground v.1.15,2014-03-01 20:51:00,
2014-03-01 15:01:00,21.4,11.5,30.25,NNW,335,3.0,5.0,65,0.00,,,0.00,Wunderground v.1.15,2014-03-01 21:01:00,
2014-03-01 15:11:00,21.3,11.4,30.25,NE,40,4.0,7.0,65,0.00,,,0.00,Wunderground v.1.15,2014-03-01 21:11:00,
2014-03-01 15:21:00,20.8,10.9,30.25,NNW,333,4.0,4.0,65,0.00,,,0.00,Wunderground v.1.15,2014-03-01 21:21:00,
2014-03-01 15:31:00,20.8,10.9,30.26,NNE,14,4.0,4.0,65,0.00,,,0.00,Wunderground v.1.15,2014-03-01 21:31:00,
2014-03-01 15:41:00,20.5,10.2,30.26,North,0,4.0,4.0,64,0.00,,,0.00,Wunderground v.1.15,2014-03-01 21:41:00,
2014-03-01 15:51:00,20.3,10.1,30.27,North,11,5.0,6.0,64,0.00,,,0.00,Wunderground v.1.15,2014-03-01 21:51:00,
2014-03-01 16:01:00,20.0,9.8,30.27,NNE,28,5.0,8.0,64,0.00,,,0.00,Wunderground v.1.15,2014-03-01 22:01:00,
2014-03-01 16:11:00,19.9,10.0,30.27,North,6,6.0,6.0,65,0.00,,,0.00,Wunderground v.1.15,2014-03-01 22:11:00,
2014-03-01 16:21:00,19.5,10.0,30.28,North,11,5.0,5.0,66,0.00,,,0.00,Wunderground v.1.15,2014-03-01 22:21:00,
2014-03-01 16:31:00,19.2,9.4,30.28,NNE,27,5.0,5.0,65,0.00,,,0.00,Wunderground v.1.15,2014-03-01 22:31:00,
2014-03-01 16:41:00,19.1,9.6,30.28,North,4,6.0,6.0,66,0.00,,,0.00,Wunderground v.1.15,2014-03-01 22:41:00,
2014-03-01 16:51:00,18.9,9.4,30.28,NE,35,5.0,5.0,66,0.00,,,0.00,Wunderground v.1.15,2014-03-01 22:51:00,
2014-03-01 17:01:00,18.6,8.4,30.29,North,4,6.0,9.0,64,0.00,,,0.00,Wunderground v.1.15,2014-03-01 23:01:00,
2014-03-01 17:11:00,18.1,8.3,30.29,NNE,31,5.0,14.0,65,0.00,,,0.00,Wunderground v.1.15,2014-03-01 23:11:00,
2014-03-01 17:21:00,17.8,9.3,30.31,NNE,18,6.0,6.0,69,0.00,,,0.00,Wunderground v.1.15,2014-03-01 23:21:00,
2014-03-01 17:31:00,17.3,9.2,30.31,North,352,6.0,6.0,70,0.00,,,0.00,Wunderground v.1.15,2014-03-01 23:31:00,
2014-03-01 17:41:00,17.3,9.2,30.31,NE,44,4.0,4.0,70,0.00,,,0.00,Wunderground v.1.15,2014-03-01 23:41:00,
2014-03-01 17:51:00,17.0,9.2,30.31,NNW,339,5.0,7.0,71,0.00,,,0.00,Wunderground v.1.15,2014-03-01 23:51:00,
2014-03-01 18:01:00,16.4,9.9,30.31,NE,41,6.0,6.0,75,0.00,,,0.00,Wunderground v.1.15,2014-03-02 00:01:00,
2014-03-01 18:11:00,16.1,10.4,30.31,NNW,342,5.0,7.0,78,0.00,,,0.00,Wunderground v.1.15,2014-03-02 00:11:00,
2014-03-01 18:21:00,15.6,10.2,30.33,NNE,23,6.0,6.0,79,0.00,,,0.00,Wunderground v.1.15,2014-03-02 00:21:00,
2014-03-01 18:31:00,15.6,10.0,30.33,NE,35,4.0,6.0,78,0.00,,,0.00,Wunderground v.1.15,2014-03-02 00:31:00,
2014-03-01 18:41:00,15.7,9.5,30.33,North,0,4.0,4.0,76,0.00,,,0.00,Wunderground v.1.15,2014-03-02 00:41:00,
2014-03-01 18:51:00,15.6,8.8,30.34,North,359,5.0,5.0,74,0.00,,,0.00,Wunderground v.1.15,2014-03-02 00:51:00,
2014-03-01 19:01:00,15.4,8.6,30.34,NNE,27,5.0,6.0,74,0.00,,,0.00,Wunderground v.1.15,2014-03-02 01:01:00,
2014-03-01 19:11:00,15.1,8.3,30.34,North,0,5.0,7.0,74,0.00,,,0.00,Wunderground v.1.15,2014-03-02 01:11:00,
2014-03-01 19:21:00,14.9,7.8,30.34,North,10,5.0,5.0,73,0.00,,,0.00,Wunderground v.1.15,2014-03-02 01:21:00,
2014-03-01 19:31:00,14.9,8.1,30.34,NE,45,3.0,3.0,74,0.00,,,0.00,Wunderground v.1.15,2014-03-02 01:31:00,
2014-03-01 19:41:00,14.9,8.4,30.34,North,3,4.0,4.0,75,0.00,,,0.00,Wunderground v.1.15,2014-03-02 01:41:00,
2014-03-01 19:51:00,14.9,9.0,30.33,NE,47,2.0,2.0,77,0.00,,,0.00,Wunderground v.1.15,2014-03-02 01:51:00,
2014-03-01 20:01:00,14.9,9.3,30.34,North,10,3.0,3.0,78,0.00,,,0.00,Wunderground v.1.15,2014-03-02 02:01:00,
2014-03-01 20:11:00,14.8,9.5,30.34,NNE,14,2.0,3.0,79,0.00,,,0.00,Wunderground v.1.15,2014-03-02 02:11:00,
2014-03-01 20:21:00,14.6,9.0,30.35,North,11,3.0,5.0,78,0.00,,,0.00,Wunderground v.1.15,2014-03-02 02:21:00,
2014-03-01 20:31:00,14.3,9.3,30.35,NE,52,4.0,4.0,80,0.00,,,0.00,Wunderground v.1.15,2014-03-02 02:31:00,
2014-03-01 20:41:00,14.1,9.6,30.35,NNE,27,2.0,2.0,82,0.00,,,0.00,Wunderground v.1.15,2014-03-02 02:41:00,
2014-03-01 20:51:00,14.0,9.2,30.36,NNE,23,5.0,8.0,81,0.00,,,0.00,Wunderground v.1.15,2014-03-02 02:51:00,
2014-03-01 21:01:00,14.0,9.2,30.37,NNE,18,3.0,7.0,81,0.00,,,0.00,Wunderground v.1.15,2014-03-02 03:01:00,
2014-03-01 21:11:00,13.8,9.0,30.37,North,8,5.0,6.0,81,0.00,,,0.00,Wunderground v.1.15,2014-03-02 03:11:00,
2014-03-01 21:21:00,13.6,8.9,30.35,NNE,27,4.0,5.0,81,0.00,,,0.00,Wunderground v.1.15,2014-03-02 03:21:00,
2014-03-01 21:31:00,13.6,8.9,30.35,NW,309,4.0,4.0,81,0.00,,,0.00,Wunderground v.1.15,2014-03-02 03:31:00,
2014-03-01 21:41:00,13.5,8.8,30.35,NW,318,3.0,3.0,81,0.00,,,0.00,Wunderground v.1.15,2014-03-02 03:41:00,
2014-03-01 21:51:00,13.3,8.6,30.35,NNW,330,4.0,5.0,81,0.00,,,0.00,Wunderground v.1.15,2014-03-02 03:51:00,
2014-03-01 22:01:00,13.1,8.4,30.35,NNE,17,4.0,4.0,81,0.00,,,0.00,Wunderground v.1.15,2014-03-02 04:01:00,
2014-03-01 22:11:00,12.9,7.9,30.35,NNE,24,5.0,7.0,80,0.00,,,0.00,Wunderground v.1.15,2014-03-02 04:11:00,
2014-03-01 22:21:00,12.9,7.9,30.34,North,359,6.0,6.0,80,0.00,,,0.00,Wunderground v.1.15,2014-03-02 04:21:00,
2014-03-01 22:31:00,12.6,7.9,30.35,NE,48,5.0,7.0,81,0.00,,,0.00,Wunderground v.1.15,2014-03-02 04:31:00,
2014-03-01 22:41:00,12.6,8.4,30.35,NNE,16,2.0,6.0,83,0.00,,,0.00,Wunderground v.1.15,2014-03-02 04:41:00,
2014-03-01 22:51:00,12.4,8.5,30.38,North,1,2.0,2.0,84,0.00,,,0.00,Wunderground v.1.15,2014-03-02 04:51:00,
2014-03-01 23:01:00,12.3,8.7,30.38,NNW,339,3.0,3.0,85,0.00,,,0.00,Wunderground v.1.15,2014-03-02 05:01:00,
2014-03-01 23:11:00,12.1,8.5,30.38,NE,42,2.0,2.0,85,0.00,,,0.00,Wunderground v.1.15,2014-03-02 05:11:00,
2014-03-01 23:21:00,11.9,-99.9,30.38,North,0,3.0,3.0,255,0.00,,,0.00,Wunderground v.1.15,2014-03-02 05:21:00,
2014-03-01 23:31:00,11.7,8.3,30.38,North,0,3.0,3.0,86,0.00,,,0.00,Wunderground v.1.15,2014-03-02 05:31:00,
2014-03-01 23:41:00,11.6,8.2,30.38,East,79,4.0,6.0,86,0.00,,,0.00,Wunderground v.1.15,2014-03-02 05:41:00,
2014-03-01 23:51:00,11.2,7.8,30.38,North,1,5.0,5.0,86,0.00,,,0.00,Wunderground v.1.15,2014-03-02 05:51:00,